Time;durP1;ratioP1;P1;durP2;ratioP2;P2;SDS_P1;SDS_P2;PMS_P1;PMS_P2;Temp;Humidity;BMP_temperature;BMP_pressure;BME280_temperature;BME280_humidity;BME280_pressure;Samples;Min_cycle;Max_cycle;Signal;HPM_P1;HPM_P2
2022/05/17 00:00:47;;;;;;;6.20;2.17;;;15.20;62.10;;;;;;5069382;28;20252;-69
2022/05/17 00:03:14;;;;;;;3.30;2.30;;;15.10;62.30;;;;;;5070711;28;20657;-68
2022/05/17 00:05:42;;;;;;;5.07;2.13;;;15.10;62.50;;;;;;5073889;28;20628;-68
2022/05/17 00:08:10;;;;;;;3.70;2.17;;;15.00;62.50;;;;;;5071658;28;20291;-69
2022/05/17 00:10:38;;;;;;;4.30;2.33;;;15.00;62.50;;;;;;5061322;28;20305;-68
2022/05/17 00:13:06;;;;;;;3.30;2.13;;;14.90;62.60;;;;;;5072741;28;20209;-69
2022/05/17 00:15:34;;;;;;;2.33;1.77;;;14.90;63.00;;;;;;5068806;28;20243;-69
2022/05/17 00:18:02;;;;;;;2.57;2.07;;;14.90;63.20;;;;;;5074804;28;20208;-69
2022/05/17 00:20:29;;;;;;;4.47;1.77;;;14.80;63.10;;;;;;5074035;28;20243;-68
2022/05/17 00:22:56;;;;;;;4.67;2.17;;;14.80;63.30;;;;;;5065021;28;20209;-68
2022/05/17 00:25:26;;;;;;;3.77;1.80;;;14.70;63.50;;;;;;5071173;28;20299;-68
2022/05/17 00:27:53;;;;;;;3.67;2.27;;;14.70;63.80;;;;;;5074841;28;20576;-68
2022/05/17 00:30:20;;;;;;;4.37;2.20;;;14.60;63.80;;;;;;5073920;28;20744;-68
2022/05/17 00:32:47;;;;;;;7.07;2.50;;;14.50;63.80;;;;;;5073845;28;20205;-69
2022/05/17 00:35:15;;;;;;;2.77;2.00;;;14.40;64.00;;;;;;5071156;28;20300;-68
2022/05/17 00:37:42;;;;;;;3.13;2.27;;;14.40;64.30;;;;;;5068185;28;20201;-69
2022/05/17 00:40:11;;;;;;;3.17;1.90;;;14.30;64.40;;;;;;5069481;28;20225;-69
2022/05/17 00:42:39;;;;;;;2.67;2.13;;;14.30;64.10;;;;;;5072561;28;20288;-68
2022/05/17 00:45:09;;;;;;;4.47;1.77;;;14.20;64.10;;;;;;5067686;28;20241;-68
2022/05/17 00:47:41;;;;;;;3.70;2.23;;;14.10;64.40;;;;;;5064838;28;20267;-68
2022/05/17 00:50:14;;;;;;;3.57;1.87;;;14.00;64.20;;;;;;5071063;28;20205;-68
2022/05/17 00:52:46;;;;;;;2.43;1.80;;;14.00;64.30;;;;;;5067924;28;20290;-68
2022/05/17 00:55:18;;;;;;;2.27;1.83;;;13.90;64.20;;;;;;5061797;28;20214;-69
2022/05/17 00:57:50;;;;;;;3.00;1.90;;;13.80;64.30;;;;;;5073358;28;20245;-69
2022/05/17 01:00:19;;;;;;;2.87;1.63;;;13.80;64.30;;;;;;5073613;28;20202;-68
2022/05/17 01:02:49;;;;;;;1.63;1.40;;;13.70;64.20;;;;;;5073117;28;20642;-69
2022/05/17 01:05:18;;;;;;;3.73;2.00;;;13.60;64.60;;;;;;5074668;28;20224;-69
2022/05/17 01:07:50;;;;;;;2.80;1.60;;;13.50;64.40;;;;;;5066763;28;20206;-68
2022/05/17 01:10:17;;;;;;;3.17;1.77;;;13.50;64.50;;;;;;5073957;28;20228;-68
2022/05/17 01:14:57;;;;;;;2.87;1.63;;;13.50;65.30;;;;;;5074773;28;20258;-69
2022/05/17 01:15:34;;;;;;;2.03;1.70;;;13.50;64.70;;;;;;5067513;28;20222;-69
2022/05/17 01:18:02;;;;;;;3.13;1.40;;;13.50;64.70;;;;;;5070820;28;20212;-69
2022/05/17 01:20:29;;;;;;;2.00;1.40;;;13.50;64.60;;;;;;5072242;28;20562;-68
2022/05/17 01:22:57;;;;;;;2.20;1.70;;;13.50;64.60;;;;;;5075645;28;20212;-69
2022/05/17 01:25:24;;;;;;;2.63;1.60;;;13.40;64.30;;;;;;5073162;28;20221;-69
2022/05/17 01:27:56;;;;;;;3.77;1.70;;;13.40;64.80;;;;;;5077194;28;20287;-68
2022/05/17 01:30:28;;;;;;;3.50;1.60;;;13.40;64.90;;;;;;5067222;28;20225;-69
2022/05/17 01:32:55;;;;;;;3.67;1.77;;;13.40;65.00;;;;;;5076445;28;20296;-68
2022/05/17 01:35:23;;;;;;;3.37;1.70;;;13.40;65.10;;;;;;5073771;28;20407;-68
2022/05/17 01:37:52;;;;;;;2.50;1.90;;;13.40;65.20;;;;;;5076059;28;20308;-69
2022/05/17 01:40:20;;;;;;;3.30;1.70;;;13.30;65.20;;;;;;5076808;28;20255;-68
2022/05/17 01:42:47;;;;;;;2.27;1.63;;;13.30;65.60;;;;;;5075773;28;20209;-68
2022/05/17 01:45:15;;;;;;;2.73;1.70;;;13.30;65.70;;;;;;5079175;28;20373;-69
2022/05/17 01:47:42;;;;;;;2.10;1.90;;;13.30;66.10;;;;;;5082559;28;20212;-69
2022/05/17 01:50:09;;;;;;;4.10;1.73;;;13.20;66.20;;;;;;5074935;28;20729;-69
2022/05/17 01:52:37;;;;;;;3.50;1.93;;;13.20;66.40;;;;;;5073338;28;20217;-69
2022/05/17 01:55:05;;;;;;;1.83;1.63;;;13.20;66.40;;;;;;5073236;28;20227;-68
2022/05/17 01:57:33;;;;;;;1.97;1.40;;;13.20;66.70;;;;;;5075841;28;20640;-69
2022/05/17 02:00:00;;;;;;;2.17;1.90;;;13.10;66.70;;;;;;5077366;28;20211;-68
2022/05/17 02:02:27;;;;;;;2.43;1.30;;;13.10;67.00;;;;;;5066579;28;20677;-69
2022/05/17 02:04:54;;;;;;;5.30;1.90;;;13.10;67.10;;;;;;5076304;28;20236;-69
2022/05/17 02:07:21;;;;;;;2.43;1.60;;;13.00;66.90;;;;;;5072858;28;20571;-69
2022/05/17 02:09:48;;;;;;;3.70;1.73;;;12.90;67.00;;;;;;5081772;28;20215;-69
2022/05/17 02:12:15;;;;;;;3.67;1.43;;;12.90;67.10;;;;;;5077588;28;20201;-69
2022/05/17 02:14:43;;;;;;;1.60;1.43;;;12.90;67.30;;;;;;5090266;28;20737;-68
2022/05/17 02:17:10;;;;;;;3.37;1.40;;;12.80;67.30;;;;;;5075831;28;20300;-68
2022/05/17 02:19:37;;;;;;;2.57;1.60;;;12.70;66.80;;;;;;5077269;28;20214;-69
2022/05/17 02:22:05;;;;;;;3.27;1.50;;;12.70;67.20;;;;;;5073117;28;20213;-68
2022/05/17 02:24:32;;;;;;;1.83;1.70;;;12.60;67.00;;;;;;5072556;28;20206;-68
2022/05/17 02:26:59;;;;;;;3.50;1.70;;;12.60;67.30;;;;;;5077698;28;20616;-68
2022/05/17 02:29:28;;;;;;;3.87;1.53;;;12.60;67.00;;;;;;5074152;28;20720;-69
2022/05/17 02:31:56;;;;;;;3.93;1.40;;;12.60;67.00;;;;;;5075272;28;20213;-68
2022/05/17 02:34:23;;;;;;;2.37;1.57;;;12.50;67.00;;;;;;5071578;28;20712;-69
2022/05/17 02:36:50;;;;;;;1.83;1.50;;;12.50;66.90;;;;;;5067518;28;20229;-68
2022/05/17 02:39:17;;;;;;;2.50;1.70;;;12.40;67.30;;;;;;5069422;28;20209;-69
2022/05/17 02:41:44;;;;;;;1.97;1.50;;;12.40;67.60;;;;;;5070852;28;20213;-69
2022/05/17 02:44:11;;;;;;;1.77;1.50;;;12.40;67.80;;;;;;5075416;28;20207;-68
2022/05/17 02:46:37;;;;;;;2.13;1.67;;;12.40;67.80;;;;;;5075576;28;20210;-69
2022/05/17 02:49:07;;;;;;;1.43;1.20;;;12.30;67.60;;;;;;5066528;28;20221;-68
2022/05/17 02:51:35;;;;;;;2.53;1.27;;;12.30;67.60;;;;;;5069095;28;20212;-69
2022/05/17 02:54:05;;;;;;;3.57;1.40;;;12.20;67.10;;;;;;5074579;28;20201;-69
2022/05/17 02:56:32;;;;;;;1.20;1.10;;;12.20;67.40;;;;;;5075354;28;20221;-68
2022/05/17 02:58:59;;;;;;;1.83;1.60;;;12.20;68.00;;;;;;5075864;28;20209;-68
2022/05/17 03:01:27;;;;;;;2.17;1.50;;;12.20;68.20;;;;;;5074604;28;20212;-69
2022/05/17 03:03:54;;;;;;;2.80;1.57;;;12.10;68.40;;;;;;5075423;28;20296;-69
2022/05/17 03:06:22;;;;;;;1.90;1.47;;;12.10;69.40;;;;;;5062347;28;20231;-68
2022/05/17 03:08:49;;;;;;;3.00;1.50;;;12.10;68.60;;;;;;5074850;28;20205;-69
2022/05/17 03:11:16;;;;;;;1.73;1.60;;;12.10;68.90;;;;;;5074372;28;20741;-70
2022/05/17 03:13:43;;;;;;;4.70;1.53;;;12.10;68.90;;;;;;5073152;28;20243;-69
2022/05/17 03:16:10;;;;;;;4.73;1.43;;;12.10;69.10;;;;;;5075000;28;20750;-69
2022/05/17 03:18:38;;;;;;;2.17;1.33;;;12.10;68.90;;;;;;5074556;28;20218;-69
2022/05/17 03:21:05;;;;;;;1.53;1.20;;;12.00;68.30;;;;;;5073897;28;20205;-69
2022/05/17 03:23:34;;;;;;;1.80;1.13;;;12.00;68.30;;;;;;5072813;28;20204;-69
2022/05/17 03:26:00;;;;;;;3.40;1.30;;;12.00;68.30;;;;;;5074841;28;20201;-69
2022/05/17 03:28:27;;;;;;;1.87;1.30;;;11.90;68.20;;;;;;5074136;28;20230;-68
2022/05/17 03:30:54;;;;;;;2.23;1.10;;;11.90;68.00;;;;;;5074145;28;20308;-69
2022/05/17 03:33:21;;;;;;;2.97;1.30;;;11.90;68.10;;;;;;5073656;28;20561;-68
2022/05/17 03:35:48;;;;;;;1.77;1.40;;;11.90;68.20;;;;;;5061708;28;20699;-69
2022/05/17 03:38:14;;;;;;;2.50;1.23;;;11.80;68.40;;;;;;5071833;28;20292;-68
2022/05/17 03:40:43;;;;;;;2.63;1.33;;;11.80;68.60;;;;;;5063620;28;20316;-69
2022/05/17 03:43:09;;;;;;;2.23;1.37;;;11.80;68.80;;;;;;5074960;28;20268;-69
2022/05/17 03:45:37;;;;;;;3.43;1.53;;;11.80;68.60;;;;;;5072109;28;20629;-69
2022/05/17 03:48:04;;;;;;;2.67;1.40;;;11.80;68.40;;;;;;5069489;28;20237;-68
2022/05/17 03:50:31;;;;;;;1.40;1.20;;;11.80;68.60;;;;;;5074861;28;20205;-69
2022/05/17 03:53:00;;;;;;;1.33;1.23;;;11.80;68.60;;;;;;5073447;28;20579;-68
2022/05/17 03:55:27;;;;;;;3.43;1.27;;;11.80;68.00;;;;;;5070769;28;20282;-69
2022/05/17 03:57:55;;;;;;;3.10;0.93;;;11.80;68.10;;;;;;5075470;28;20650;-68
2022/05/17 04:00:22;;;;;;;2.33;1.20;;;11.90;68.10;;;;;;5069345;28;20220;-69
2022/05/17 04:02:49;;;;;;;2.23;1.30;;;11.90;68.00;;;;;;5074000;28;20685;-68
2022/05/17 04:05:16;;;;;;;3.53;1.40;;;11.90;67.80;;;;;;5075615;28;20258;-69
2022/05/17 04:07:43;;;;;;;2.23;1.37;;;11.90;67.80;;;;;;5075207;28;20762;-69
2022/05/17 04:10:12;;;;;;;2.33;1.30;;;12.00;67.90;;;;;;5074257;28;20667;-68
2022/05/17 04:12:39;;;;;;;2.17;1.40;;;12.00;67.40;;;;;;5073959;28;20203;-69
2022/05/17 04:15:11;;;;;;;2.37;1.50;;;12.10;66.90;;;;;;5073843;28;20624;-69
2022/05/17 04:17:38;;;;;;;0.93;0.90;;;12.10;66.50;;;;;;5074708;28;20259;-69
2022/05/17 04:20:06;;;;;;;2.20;1.30;;;12.10;66.20;;;;;;5067382;28;20211;-69
2022/05/17 04:22:33;;;;;;;2.20;1.20;;;12.20;65.80;;;;;;5070677;28;20261;-69
2022/05/17 04:25:00;;;;;;;2.87;0.90;;;12.20;65.30;;;;;;5068109;28;20293;-70
2022/05/17 04:27:28;;;;;;;2.10;1.23;;;12.20;64.80;;;;;;5075599;28;20213;-68
2022/05/17 04:29:55;;;;;;;3.07;1.60;;;12.20;64.90;;;;;;5077710;28;20641;-68
2022/05/17 04:32:23;;;;;;;1.80;1.27;;;12.20;64.60;;;;;;5081964;28;20220;-68
2022/05/17 04:34:50;;;;;;;3.00;1.40;;;12.10;64.60;;;;;;5075248;28;20296;-67
2022/05/17 04:37:17;;;;;;;3.67;1.23;;;12.20;64.70;;;;;;5080195;28;20259;-69
2022/05/17 04:39:44;;;;;;;3.20;1.40;;;12.30;64.70;;;;;;5075091;28;20292;-67
2022/05/17 04:42:11;;;;;;;1.30;1.20;;;12.30;64.30;;;;;;5072532;28;20205;-68
2022/05/17 04:44:37;;;;;;;3.60;1.30;;;12.40;64.00;;;;;;5074262;28;20209;-68
2022/05/17 04:47:05;;;;;;;0.90;0.83;;;12.40;63.70;;;;;;5072957;28;20563;-69
2022/05/17 04:49:33;;;;;;;1.87;1.10;;;12.50;63.20;;;;;;5068306;28;20243;-69
2022/05/17 04:52:00;;;;;;;1.70;1.00;;;12.60;63.00;;;;;;5068311;28;20289;-68
2022/05/17 04:54:27;;;;;;;1.93;1.20;;;12.70;62.80;;;;;;5074190;28;20496;-68
2022/05/17 04:56:54;;;;;;;1.10;0.90;;;12.70;61.90;;;;;;5074584;28;20275;-68
2022/05/17 04:59:21;;;;;;;2.97;1.07;;;12.80;61.70;;;;;;5074206;28;20220;-68
2022/05/17 05:01:48;;;;;;;2.43;1.03;;;12.80;60.80;;;;;;5078503;28;20217;-68
2022/05/17 05:04:17;;;;;;;5.53;1.17;;;12.80;60.60;;;;;;5073916;28;20209;-67
2022/05/17 05:06:45;;;;;;;1.40;1.07;;;12.80;61.10;;;;;;5077349;28;20208;-68
2022/05/17 05:09:13;;;;;;;3.07;1.20;;;12.90;61.50;;;;;;5065679;28;20251;-68
2022/05/17 05:11:40;;;;;;;2.27;1.20;;;13.00;61.60;;;;;;5071030;28;20205;-68
2022/05/17 05:14:06;;;;;;;2.37;1.30;;;13.10;61.70;;;;;;5070211;28;20267;-68
2022/05/17 05:16:36;;;;;;;1.77;1.00;;;13.10;62.20;;;;;;5072686;28;20312;-67
2022/05/17 05:19:03;;;;;;;2.13;0.93;;;13.20;61.50;;;;;;5074354;28;20295;-68
2022/05/17 05:21:30;;;;;;;2.37;0.97;;;13.30;61.90;;;;;;5069539;28;20312;-69
2022/05/17 05:24:00;;;;;;;2.70;0.80;;;13.40;61.20;;;;;;5067531;28;20208;-69
2022/05/17 05:26:27;;;;;;;1.27;1.10;;;13.50;60.30;;;;;;5072625;28;20260;-68
2022/05/17 05:28:54;;;;;;;2.40;1.03;;;13.60;59.80;;;;;;5069993;28;20225;-70
2022/05/17 05:31:20;;;;;;;3.77;1.30;;;13.70;59.80;;;;;;5073211;28;20292;-69
2022/05/17 05:33:47;;;;;;;2.90;1.00;;;13.70;59.40;;;;;;5072190;28;20211;-71
2022/05/17 05:36:14;;;;;;;1.37;1.10;;;13.70;59.30;;;;;;5071827;28;20328;-70
2022/05/17 05:38:41;;;;;;;2.67;1.20;;;13.80;59.40;;;;;;5070848;28;20661;-69
2022/05/17 05:41:12;;;;;;;2.00;1.20;;;13.90;59.50;;;;;;5072001;28;20300;-70
2022/05/17 05:43:39;;;;;;;2.00;1.30;;;14.00;59.30;;;;;;5065871;28;20241;-70
2022/05/17 05:46:07;;;;;;;3.47;1.80;;;14.20;59.10;;;;;;5068159;28;20241;-71
2022/05/17 05:48:33;;;;;;;4.43;1.50;;;14.30;58.90;;;;;;5067609;28;20717;-69
2022/05/17 05:51:00;;;;;;;2.63;1.00;;;14.50;58.70;;;;;;5071833;28;20201;-69
2022/05/17 05:53:27;;;;;;;3.67;1.30;;;14.50;58.60;;;;;;5077573;28;20212;-71
2022/05/17 05:55:57;;;;;;;1.43;1.33;;;14.60;58.20;;;;;;5069242;28;20229;-71
2022/05/17 05:58:26;;;;;;;2.07;0.93;;;14.60;57.60;;;;;;5068488;28;20240;-69
2022/05/17 06:00:53;;;;;;;12.97;1.13;;;14.50;56.90;;;;;;5079808;28;20308;-70
2022/05/17 06:03:20;;;;;;;2.10;0.90;;;14.50;56.20;;;;;;5082546;28;20635;-71
2022/05/17 06:05:47;;;;;;;2.53;1.10;;;14.50;55.70;;;;;;5081967;28;20197;-70
2022/05/17 06:08:14;;;;;;;4.30;1.07;;;14.50;56.20;;;;;;5079967;28;20229;-73
2022/05/17 06:10:42;;;;;;;3.00;0.87;;;14.40;55.50;;;;;;5086678;28;20646;-72
2022/05/17 06:13:10;;;;;;;6.33;1.10;;;14.40;55.30;;;;;;5082621;28;20216;-71
2022/05/17 06:15:39;;;;;;;1.23;0.97;;;14.30;55.30;;;;;;5087863;28;20193;-71
2022/05/17 06:18:06;;;;;;;3.23;0.90;;;14.30;55.60;;;;;;5081220;28;20700;-70
2022/05/17 06:20:34;;;;;;;4.53;1.30;;;14.20;55.70;;;;;;5085933;28;20270;-71
2022/05/17 06:23:01;;;;;;;1.13;0.87;;;14.30;55.90;;;;;;5087978;28;20235;-68
2022/05/17 06:25:28;;;;;;;2.03;1.00;;;14.40;56.00;;;;;;5076787;28;20233;-70
2022/05/17 06:27:56;;;;;;;3.43;1.07;;;14.30;56.10;;;;;;5092176;28;20224;-70
2022/05/17 06:30:23;;;;;;;2.43;0.90;;;14.40;56.20;;;;;;5085507;28;20240;-69
2022/05/17 06:32:52;;;;;;;2.17;0.80;;;14.50;55.80;;;;;;5080089;28;20216;-69
2022/05/17 06:35:19;;;;;;;1.70;0.80;;;14.50;55.50;;;;;;5080359;28;20197;-69
2022/05/17 06:37:46;;;;;;;1.90;0.80;;;14.60;54.70;;;;;;5076958;28;20681;-69
2022/05/17 06:40:14;;;;;;;2.90;1.00;;;14.60;53.90;;;;;;5084785;28;20205;-69
2022/05/17 06:42:42;;;;;;;0.90;0.80;;;14.60;53.40;;;;;;5079454;28;20201;-70
2022/05/17 06:45:11;;;;;;;1.37;0.60;;;14.60;52.50;;;;;;5082099;28;20283;-69
2022/05/17 06:47:38;;;;;;;1.50;0.87;;;14.60;51.70;;;;;;5077827;28;20204;-70
2022/05/17 06:50:08;;;;;;;3.00;1.70;;;14.60;51.70;;;;;;5074707;28;20228;-68
2022/05/17 06:52:34;;;;;;;1.60;0.73;;;14.60;51.30;;;;;;5081367;28;20201;-70
2022/05/17 06:55:01;;;;;;;4.07;1.90;;;14.70;52.10;;;;;;5077689;28;20960;-69
2022/05/17 06:57:28;;;;;;;3.10;0.93;;;14.70;52.00;;;;;;5079569;28;20671;-69
2022/05/17 06:59:55;;;;;;;3.37;0.80;;;14.80;51.50;;;;;;5077346;28;20216;-69
2022/05/17 07:02:22;;;;;;;4.50;0.93;;;14.80;51.20;;;;;;5077432;28;20828;-71
2022/05/17 07:04:49;;;;;;;4.63;0.90;;;14.90;51.30;;;;;;5082542;28;20308;-69
2022/05/17 07:07:17;;;;;;;2.60;0.60;;;15.00;51.10;;;;;;5075771;28;20284;-70
2022/05/17 07:13:07;;;;;;;3.97;0.77;;;15.10;50.90;;;;;;5070312;28;20218;-69
2022/05/17 07:15:15;;;;;;;0.80;0.60;;;15.20;51.10;;;;;;5075421;28;20724;-69
2022/05/17 07:17:42;;;;;;;1.60;0.70;;;15.30;50.60;;;;;;5075123;28;20667;-67
2022/05/17 07:20:10;;;;;;;1.27;0.70;;;15.40;50.50;;;;;;5073857;28;20288;-70
2022/05/17 07:22:39;;;;;;;2.23;0.80;;;15.50;49.70;;;;;;5080307;28;20541;-67
2022/05/17 07:25:07;;;;;;;2.07;0.67;;;15.40;48.70;;;;;;5074914;28;20201;-68
2022/05/17 07:27:33;;;;;;;0.70;0.50;;;15.40;48.80;;;;;;5074158;28;20280;-69
2022/05/17 07:30:01;;;;;;;1.03;0.70;;;15.30;48.70;;;;;;5073226;28;20232;-70
2022/05/17 07:32:28;;;;;;;1.10;0.77;;;15.40;48.80;;;;;;5075811;28;20272;-69
2022/05/17 07:34:55;;;;;;;0.50;0.50;;;15.60;49.00;;;;;;5072986;28;20233;-69
2022/05/17 07:37:22;;;;;;;5.40;0.67;;;15.70;48.40;;;;;;5076504;28;20245;-67
2022/05/17 07:39:50;;;;;;;0.83;0.57;;;15.90;47.90;;;;;;5076186;28;20205;-69
2022/05/17 07:42:17;;;;;;;1.63;0.80;;;16.00;47.00;;;;;;5066230;28;20328;-69
2022/05/17 07:44:44;;;;;;;4.03;0.80;;;16.00;46.90;;;;;;5077209;28;20233;-71
2022/05/17 07:47:11;;;;;;;3.07;0.77;;;16.10;47.20;;;;;;5076956;28;20205;-69
2022/05/17 07:49:39;;;;;;;1.90;0.67;;;16.10;47.20;;;;;;5076698;28;20325;-70
2022/05/17 07:52:07;;;;;;;1.00;0.90;;;16.00;47.40;;;;;;5077002;28;20231;-70
2022/05/17 07:54:36;;;;;;;4.53;0.70;;;16.10;47.60;;;;;;5074278;28;20446;-70
2022/05/17 07:57:04;;;;;;;1.80;0.60;;;16.20;47.20;;;;;;5074884;28;20225;-70
2022/05/17 07:59:31;;;;;;;0.70;0.50;;;16.30;47.20;;;;;;5081729;28;20668;-71
2022/05/17 08:01:58;;;;;;;1.98;0.80;;;16.40;47.30;;;;;;5079741;28;20655;-70
2022/05/17 08:04:25;;;;;;;1.10;0.67;;;16.60;47.00;;;;;;5064124;28;20209;-70
2022/05/17 08:06:52;;;;;;;5.97;0.80;;;16.80;46.80;;;;;;5076503;28;20255;-69
2022/05/17 08:09:19;;;;;;;1.30;0.60;;;17.00;46.50;;;;;;5073545;28;20237;-70
2022/05/17 08:11:46;;;;;;;2.20;0.57;;;17.10;45.70;;;;;;5076725;28;20228;-70
2022/05/17 08:14:15;;;;;;;1.85;0.40;;;17.20;45.40;;;;;;5074864;28;20287;-70
2022/05/17 08:16:43;;;;;;;3.22;0.60;;;17.40;45.20;;;;;;5077482;28;20212;-70
2022/05/17 08:19:10;;;;;;;0.73;0.60;;;17.50;45.40;;;;;;5073540;28;20553;-70
2022/05/17 08:21:38;;;;;;;1.60;0.50;;;17.50;45.40;;;;;;5076666;28;20205;-70
2022/05/17 08:24:05;;;;;;;2.65;0.80;;;17.50;45.50;;;;;;5082233;28;20636;-70
2022/05/17 08:29:18;;;;;;;2.15;0.77;;;17.60;45.40;;;;;;5085435;28;20226;-68
2022/05/17 08:33:14;;;;;;;1.15;0.70;;;17.70;45.30;;;;;;5082434;28;20209;-71
2022/05/17 08:34:33;;;;;;;2.35;1.73;;;17.70;45.50;;;;;;5073956;28;20201;-70
2022/05/17 08:37:00;;;;;;;1.67;0.75;;;17.80;45.40;;;;;;5080304;28;20262;-72
2022/05/17 08:39:28;;;;;;;2.75;0.73;;;17.90;45.10;;;;;;5080391;28;20232;-71
2022/05/17 08:42:00;;;;;;;2.15;0.70;;;18.00;45.20;;;;;;5082818;28;20226;-70
2022/05/17 08:44:42;;;;;;;2.92;0.60;;;18.10;44.20;;;;;;5062535;28;20201;-70
2022/05/17 08:47:17;;;;;;;4.47;1.00;;;18.10;44.40;;;;;;5078865;28;20285;-70
2022/05/17 08:49:50;;;;;;;2.25;0.80;;;18.10;44.40;;;;;;5080627;28;20285;-69
2022/05/17 08:52:20;;;;;;;1.42;0.80;;;18.20;45.00;;;;;;5081965;28;20255;-68
2022/05/17 08:54:51;;;;;;;1.00;0.73;;;18.20;45.30;;;;;;5077806;28;20692;-70
2022/05/17 08:57:25;;;;;;;2.05;0.60;;;18.50;45.60;;;;;;5073019;28;20723;-69
2022/05/17 08:59:53;;;;;;;2.30;0.80;;;18.70;45.40;;;;;;5081346;28;20652;-68
2022/05/17 09:02:26;;;;;;;2.85;0.70;;;19.00;45.20;;;;;;5079207;28;20216;-70
2022/05/17 09:05:06;;;;;;;2.72;1.20;;;19.20;45.20;;;;;;5085315;28;20185;-70
2022/05/17 09:07:40;;;;;;;2.38;1.52;;;19.40;45.40;;;;;;5079956;28;20193;-70
2022/05/17 09:10:18;;;;;;;2.63;1.70;;;19.60;45.60;;;;;;5088345;28;20223;-69
2022/05/17 09:12:50;;;;;;;4.75;0.70;;;19.80;44.30;;;;;;5083378;28;20201;-71
2022/05/17 09:15:19;;;;;;;4.47;0.90;;;19.80;44.40;;;;;;5073980;28;20249;-68
2022/05/17 09:17:47;;;;;;;3.70;1.10;;;19.70;44.40;;;;;;5072105;28;20696;-69
2022/05/17 09:20:18;;;;;;;2.25;0.70;;;19.70;45.10;;;;;;5070766;28;20209;-69
2022/05/17 09:22:45;;;;;;;2.78;0.70;;;19.80;44.70;;;;;;5076347;28;20604;-70
2022/05/17 09:25:20;;;;;;;2.70;0.90;;;19.90;44.60;;;;;;5076183;28;20667;-69
2022/05/17 09:27:49;;;;;;;2.63;0.70;;;20.10;44.60;;;;;;5071507;28;20193;-69
2022/05/17 09:30:35;;;;;;;1.75;0.70;;;20.10;44.00;;;;;;5086004;28;20282;-70
2022/05/17 09:33:05;;;;;;;3.03;0.80;;;20.20;44.00;;;;;;5079461;28;20577;-70
2022/05/17 09:35:32;;;;;;;1.95;0.95;;;20.30;43.00;;;;;;5090086;28;20204;-70
2022/05/17 09:38:03;;;;;;;7.78;0.90;;;20.50;42.70;;;;;;5080951;28;20221;-70
2022/05/17 09:40:33;;;;;;;3.05;0.60;;;20.40;42.10;;;;;;5083320;28;20236;-70
2022/05/17 09:43:04;;;;;;;1.20;0.50;;;20.50;42.20;;;;;;5092802;28;20244;-69
2022/05/17 09:45:49;;;;;;;1.33;0.60;;;20.70;42.30;;;;;;5079034;28;20200;-69
2022/05/17 09:52:31;;;;;;;2.50;0.55;;;21.00;41.90;;;;;;5075562;28;20197;-69
2022/05/17 09:54:09;;;;;;;1.80;0.60;;;21.30;41.30;;;;;;5088652;28;20290;-70
2022/05/17 09:56:36;;;;;;;1.38;0.70;;;21.40;40.90;;;;;;5077433;28;20201;-70
2022/05/17 09:59:21;;;;;;;2.28;0.70;;;21.30;41.00;;;;;;5076410;28;20256;-70
2022/05/17 10:01:50;;;;;;;2.72;0.50;;;21.10;39.50;;;;;;5071108;28;20197;-70
2022/05/17 10:04:21;;;;;;;0.60;0.52;;;20.90;39.70;;;;;;5073933;28;20201;-70
2022/05/17 10:06:53;;;;;;;0.88;0.60;;;20.80;40.40;;;;;;5086968;28;20224;-70
2022/05/17 10:09:29;;;;;;;0.60;0.60;;;20.70;40.30;;;;;;5084863;28;20610;-70
2022/05/17 10:12:05;;;;;;;2.70;0.80;;;20.80;40.40;;;;;;5082647;28;20560;-69
2022/05/17 10:14:35;;;;;;;2.28;0.65;;;21.00;40.00;;;;;;5068428;28;21081;-70
2022/05/17 10:17:08;;;;;;;2.35;1.20;;;21.10;40.10;;;;;;5071912;28;20237;-70
2022/05/17 10:19:45;;;;;;;3.30;0.82;;;21.20;40.80;;;;;;5072410;28;20255;-69
2022/05/17 10:22:23;;;;;;;1.52;0.77;;;21.30;40.00;;;;;;5080833;28;20328;-69
2022/05/17 10:24:53;;;;;;;1.35;0.70;;;21.40;40.10;;;;;;5075880;28;20197;-70
2022/05/17 10:27:24;;;;;;;1.48;0.80;;;21.50;40.00;;;;;;5077619;28;20313;-70
2022/05/17 10:29:53;;;;;;;2.67;0.70;;;21.80;39.60;;;;;;5074806;28;20225;-70
2022/05/17 10:32:29;;;;;;;1.15;0.80;;;22.00;39.70;;;;;;5072703;28;20201;-68
2022/05/17 10:34:59;;;;;;;0.80;0.70;;;22.20;39.50;;;;;;5077854;28;20225;-71
2022/05/17 10:37:29;;;;;;;2.15;0.60;;;22.40;39.10;;;;;;5077513;28;20577;-70
2022/05/17 10:39:59;;;;;;;1.65;0.70;;;22.60;39.00;;;;;;5091587;28;20301;-70
2022/05/17 10:42:28;;;;;;;3.88;0.90;;;22.70;38.70;;;;;;5071871;28;20211;-70
2022/05/17 10:44:58;;;;;;;1.42;0.60;;;22.70;39.10;;;;;;5076216;28;20268;-71
2022/05/17 10:47:46;;;;;;;2.55;0.57;;;22.80;38.40;;;;;;5068299;28;20709;-70
2022/05/17 10:50:27;;;;;;;1.63;0.50;;;22.70;38.20;;;;;;5073157;28;20291;-69
2022/05/17 10:53:26;;;;;;;5.13;0.90;;;22.60;38.40;;;;;;5074179;28;20244;-69
2022/05/17 10:56:07;;;;;;;0.68;0.50;;;22.60;39.00;;;;;;5071837;28;20202;-71
2022/05/17 10:58:44;;;;;;;1.67;0.85;;;22.80;38.30;;;;;;5072854;28;20224;-71
2022/05/17 11:01:20;;;;;;;2.95;1.10;;;22.80;37.60;;;;;;5076517;28;20241;-71
2022/05/17 11:04:25;;;;;;;1.98;0.90;;;22.70;38.40;;;;;;5076231;28;20205;-71
2022/05/17 11:07:06;;;;;;;0.93;0.60;;;22.70;37.60;;;;;;5051816;28;20608;-70
2022/05/17 11:09:41;;;;;;;3.25;0.52;;;22.70;37.70;;;;;;5083326;28;20296;-71
2022/05/17 11:12:09;;;;;;;2.15;0.75;;;22.70;37.60;;;;;;5086539;28;20196;-70
2022/05/17 11:14:44;;;;;;;2.53;0.88;;;22.90;37.40;;;;;;5090122;28;20240;-71
2022/05/17 11:17:19;;;;;;;1.52;0.82;;;22.90;37.60;;;;;;5081110;28;20204;-70
2022/05/17 11:19:51;;;;;;;0.40;0.40;;;23.10;37.40;;;;;;5085441;28;20612;-71
2022/05/17 11:22:25;;;;;;;2.67;0.60;;;23.20;37.80;;;;;;5080860;28;20205;-71
2022/05/17 11:25:24;;;;;;;2.80;0.60;;;23.30;37.10;;;;;;5085961;28;20267;-71
2022/05/17 11:28:18;;;;;;;2.05;0.75;;;23.70;36.90;;;;;;5082254;28;20292;-70
2022/05/17 11:30:49;;;;;;;2.20;0.70;;;23.90;36.50;;;;;;5068112;28;20549;-70
2022/05/17 11:33:41;;;;;;;3.97;0.95;;;24.00;36.50;;;;;;5085704;28;20204;-70
2022/05/17 11:36:10;;;;;;;0.90;0.60;;;24.00;36.20;;;;;;5065330;28;20257;-70
2022/05/17 11:38:53;;;;;;;1.92;0.73;;;24.00;36.20;;;;;;5074689;28;20223;-69
2022/05/17 11:41:23;;;;;;;5.95;0.60;;;23.90;36.40;;;;;;5087558;28;20201;-70
2022/05/17 11:44:12;;;;;;;1.20;0.70;;;23.80;36.30;;;;;;5081115;28;20296;-71
2022/05/17 11:46:58;;;;;;;2.00;0.55;;;23.40;36.40;;;;;;5080271;28;20197;-69
2022/05/17 11:49:48;;;;;;;0.85;0.50;;;23.00;37.00;;;;;;5082002;28;20266;-69
2022/05/17 11:52:30;;;;;;;1.67;0.73;;;22.80;37.30;;;;;;5083042;28;20695;-69
2022/05/17 11:55:02;;;;;;;1.58;0.85;;;22.80;37.60;;;;;;5075720;28;20217;-69
2022/05/17 11:58:09;;;;;;;0.55;0.55;;;22.90;37.80;;;;;;5073411;28;20262;-70
2022/05/17 12:00:47;;;;;;;1.65;1.00;;;23.10;37.90;;;;;;5074681;28;20237;-69
2022/05/17 12:03:46;;;;;;;0.60;0.60;;;23.40;37.70;;;;;;5073793;28;20205;-70
2022/05/17 12:06:39;;;;;;;2.45;0.80;;;23.80;37.40;;;;;;5073760;28;20239;-70
2022/05/17 12:09:26;;;;;;;3.03;0.85;;;24.00;37.20;;;;;;5069078;28;20251;-71
2022/05/17 12:12:13;;;;;;;4.53;1.10;;;23.90;37.00;;;;;;5075657;28;20201;-72
2022/05/17 12:14:50;;;;;;;0.60;0.50;;;23.90;37.60;;;;;;5076046;28;20336;-72
2022/05/17 12:17:22;;;;;;;2.08;0.70;;;23.90;37.80;;;;;;5069891;28;20255;-71
2022/05/17 12:19:59;;;;;;;1.85;0.80;;;23.90;38.00;;;;;;5076509;28;20229;-72
2022/05/17 12:22:32;;;;;;;3.13;1.00;;;23.80;37.60;;;;;;5068705;28;20546;-73
2022/05/17 12:25:05;;;;;;;5.10;1.70;;;23.70;37.60;;;;;;5076017;28;20205;-73
2022/05/17 12:27:36;;;;;;;3.00;1.38;;;23.60;37.80;;;;;;5075808;28;20272;-70
2022/05/17 12:32:54;;;;;;;2.83;1.00;;;23.20;37.80;;;;;;5070681;28;20199;-72
2022/05/17 12:35:25;;;;;;;3.33;0.90;;;23.00;38.40;;;;;;5074975;28;20258;-71
2022/05/17 12:37:52;;;;;;;0.60;0.60;;;22.90;38.50;;;;;;5068137;28;20264;-72
2022/05/17 12:43:12;;;;;;;2.65;1.08;;;23.20;38.60;;;;;;5074858;28;20223;-72
2022/05/17 12:45:42;;;;;;;1.48;0.60;;;23.30;38.40;;;;;;5076066;28;20209;-71
2022/05/17 12:48:16;;;;;;;0.82;0.82;;;23.40;38.30;;;;;;5067338;28;20217;-71
2022/05/17 12:50:46;;;;;;;0.82;0.68;;;23.50;38.00;;;;;;5075345;28;20205;-71
2022/05/17 12:53:20;;;;;;;1.15;0.65;;;23.50;37.90;;;;;;5074836;28;20300;-72
2022/05/17 12:56:04;;;;;;;1.65;0.80;;;23.70;37.90;;;;;;5068614;28;20216;-70
2022/05/17 12:58:35;;;;;;;1.52;0.85;;;23.70;37.80;;;;;;5077715;28;20212;-69
2022/05/17 13:01:03;;;;;;;1.77;0.57;;;23.70;37.80;;;;;;5066436;28;20636;-70
2022/05/17 13:03:32;;;;;;;2.10;0.80;;;23.60;37.90;;;;;;5072689;28;20209;-70
2022/05/17 13:06:03;;;;;;;1.30;0.73;;;23.50;37.80;;;;;;5070811;28;20734;-69
2022/05/17 13:08:35;;;;;;;6.22;0.60;;;23.50;38.00;;;;;;5073979;28;20287;-69
2022/05/17 13:11:05;;;;;;;2.75;0.80;;;23.40;37.80;;;;;;5082133;28;20201;-69
2022/05/17 13:13:35;;;;;;;0.40;0.40;;;23.40;38.60;;;;;;5075803;28;20315;-71
2022/05/17 13:16:09;;;;;;;2.55;0.90;;;23.40;37.90;;;;;;5075898;28;20629;-70
2022/05/17 13:18:41;;;;;;;2.38;0.70;;;23.40;38.10;;;;;;5079706;28;20653;-70